DEHRS EDWR-EDWJ

Flight info

Callsign DEHRS
Flight time 0h 7m
Altitude 3000
Route EDWJ
Aircraft C172/L-SFG/C

Departure

Time 2026-05-06 07:39
Airport Borkum Airport (EDWR)

Arrival

Time 2026-05-06 07:46
Airport Juist Airport (EDWJ)
Time Latitude Longitude Altitude Speed Heading
2026-05-06 07:33 53.59793 6.70269 7 ft 0 kts 333°
2026-05-06 07:36 53.59795 6.70268 7 ft 3 kts 348°
2026-05-06 07:36 53.59798 6.70291 7 ft 4 kts 164°
2026-05-06 07:36 53.59768 6.70260 7 ft 5 kts 184°
2026-05-06 07:36 53.59741 6.70282 7 ft 3 kts 159°
2026-05-06 07:37 53.59713 6.70302 7 ft 7 kts 145°
2026-05-06 07:37 53.59680 6.70361 8 ft 7 kts 112°
2026-05-06 07:37 53.59664 6.70416 9 ft 4 kts 117°
2026-05-06 07:37 53.59639 6.70501 9 ft 13 kts 115°
2026-05-06 07:38 53.59603 6.70648 13 ft 7 kts 73°
2026-05-06 07:38 53.59626 6.70692 9 ft 15 kts 45°
2026-05-06 07:38 53.59808 6.71009 7 ft 59 kts 46°
2026-05-06 07:38 53.60152 6.71580 96 ft 76 kts 40°
2026-05-06 07:39 53.60490 6.72115 335 ft 82 kts 72°
2026-05-06 07:39 53.60296 6.73183 450 ft 97 kts 89°
2026-05-06 07:39 53.60531 6.74230 588 ft 97 kts 68°
2026-05-06 07:39 53.60774 6.75280 710 ft 97 kts 66°
2026-05-06 07:40 53.61034 6.76334 826 ft 98 kts 66°
2026-05-06 07:40 53.61280 6.77406 891 ft 101 kts 66°
2026-05-06 07:40 53.61551 6.78519 892 ft 103 kts 66°
2026-05-06 07:40 53.61822 6.79646 892 ft 104 kts 66°
2026-05-06 07:41 53.62098 6.80792 893 ft 106 kts 66°
2026-05-06 07:41 53.62377 6.81955 892 ft 107 kts 68°
2026-05-06 07:41 53.62656 6.83116 892 ft 107 kts 66°
2026-05-06 07:41 53.62935 6.84280 894 ft 108 kts 66°
2026-05-06 07:42 53.63215 6.85449 890 ft 108 kts 66°
2026-05-06 07:42 53.63495 6.86618 885 ft 107 kts 66°
2026-05-06 07:42 53.63774 6.87784 887 ft 107 kts 67°
2026-05-06 07:42 53.64053 6.88949 885 ft 106 kts 67°
2026-05-06 07:43 53.64329 6.90100 887 ft 105 kts 67°
2026-05-06 07:43 53.64602 6.91244 888 ft 105 kts 66°
2026-05-06 07:43 53.64880 6.92405 893 ft 108 kts 66°
2026-05-06 07:43 53.65162 6.93582 891 ft 107 kts 65°
2026-05-06 07:44 53.65438 6.94741 889 ft 106 kts 65°
2026-05-06 07:44 53.65709 6.95878 889 ft 103 kts 66°
2026-05-06 07:44 53.65975 6.96989 888 ft 102 kts 66°
2026-05-06 07:44 53.66240 6.98102 896 ft 104 kts 67°
2026-05-06 07:45 53.66529 6.99231 909 ft 105 kts 58°
2026-05-06 07:45 53.66999 7.00161 780 ft 102 kts 50°
2026-05-06 07:45 53.67396 7.01173 540 ft 103 kts 65°
2026-05-06 07:45 53.67615 7.02338 390 ft 102 kts 70°
2026-05-06 07:46 53.67798 7.03454 234 ft 100 kts 69°
2026-05-06 07:46 53.67962 7.04510 116 ft 81 kts 77°
2026-05-06 07:46 53.68077 7.05295 17 ft 56 kts 78°
2026-05-06 07:46 53.68137 7.05735 7 ft 26 kts 76°
2026-05-06 07:47 53.68181 7.06040 7 ft 25 kts 76°
2026-05-06 07:47 53.68204 7.06149 8 ft 5 kts 27°
2026-05-06 07:47 53.68226 7.06093 9 ft 15 kts 258°
2026-05-06 07:47 53.68189 7.05831 5 ft 24 kts 256°
2026-05-06 07:48 53.68156 7.05601 9 ft 12 kts 271°
2026-05-06 07:48 53.68163 7.05560 10 ft 0 kts 276°